createdAt,value
2022-11-26T00:00:57.767Z,13.73
2022-11-26T00:05:59.444Z,13.75
2022-11-26T00:11:01.745Z,13.15
2022-11-26T00:16:03.752Z,13.70
2022-11-26T00:21:22.624Z,13.88
2022-11-26T00:26:25.642Z,13.98
2022-11-26T00:31:28.792Z,13.57
2022-11-26T00:36:33.032Z,13.38
2022-11-26T00:41:38.806Z,13.57
2022-11-26T00:46:40.610Z,13.57
2022-11-26T00:51:43.519Z,13.88
2022-11-26T00:56:46.264Z,13.55
2022-11-26T01:01:47.960Z,13.30
2022-11-26T01:06:51.048Z,13.52
2022-11-26T01:11:54.730Z,12.98
2022-11-26T01:16:57.420Z,13.60
2022-11-26T01:22:00.705Z,13.07
2022-11-26T01:27:02.389Z,13.20
2022-11-26T01:32:04.479Z,13.57
2022-11-26T01:37:16.248Z,13.45
2022-11-26T01:42:37.570Z,13.63
2022-11-26T01:47:40.493Z,13.55
2022-11-26T01:52:42.295Z,13.93
2022-11-26T01:57:46.046Z,14.73
2022-11-26T02:02:50.001Z,12.73
2022-11-26T02:07:55.396Z,11.77
2022-11-26T02:13:00.538Z,12.95
2022-11-26T02:18:07.140Z,11.85
2022-11-26T02:23:24.130Z,11.63
2022-11-26T02:28:38.558Z,11.43
2022-11-26T02:33:57.581Z,11.10
2022-11-26T02:39:11.984Z,9.70
2022-11-26T02:44:16.055Z,9.35
2022-11-26T02:49:21.593Z,9.77
2022-11-26T02:54:26.029Z,9.82
2022-11-26T02:59:28.429Z,9.25
2022-11-26T03:04:38.115Z,9.73
2022-11-26T03:10:01.363Z,8.18
2022-11-26T03:15:03.278Z,8.60
2022-11-26T03:20:05.928Z,8.00
2022-11-26T03:25:08.449Z,7.90
2022-11-26T03:30:10.833Z,8.77
2022-11-26T03:35:12.545Z,8.40
2022-11-26T03:40:16.868Z,8.35
2022-11-26T03:45:18.762Z,7.80
2022-11-26T03:50:20.505Z,8.02
2022-11-26T03:55:22.128Z,7.10
2022-11-26T04:00:24.146Z,7.47
2022-11-26T04:05:25.784Z,7.22
2022-11-26T04:10:27.489Z,6.70
2022-11-26T04:15:30.184Z,6.30
2022-11-26T04:20:31.823Z,7.80
2022-11-26T04:25:33.555Z,7.43
2022-11-26T04:30:35.328Z,11.63
2022-11-26T04:35:38.258Z,6.75
2022-11-26T04:40:39.900Z,6.85
2022-11-26T04:45:41.745Z,8.15
2022-11-26T04:50:43.374Z,7.03
2022-11-26T04:55:45.074Z,7.65
2022-11-26T05:00:50.709Z,7.45
2022-11-26T05:05:54.140Z,7.53
2022-11-26T05:10:55.832Z,7.85
2022-11-26T05:15:57.448Z,8.40
2022-11-26T05:20:59.127Z,7.78
2022-11-26T05:26:00.829Z,7.95
2022-11-26T05:31:03.725Z,7.38
2022-11-26T05:36:05.530Z,8.43
2022-11-26T05:41:07.226Z,8.15
2022-11-26T05:46:09.704Z,13.32
2022-11-26T05:51:11.788Z,10.27
2022-11-26T05:56:13.828Z,9.05
2022-11-26T06:01:15.474Z,9.45
2022-11-26T06:06:17.296Z,8.73
2022-11-26T06:11:19.026Z,8.93
2022-11-26T06:16:20.845Z,8.75
2022-11-26T06:21:22.532Z,8.68
2022-11-26T06:26:24.339Z,9.68
2022-11-26T06:31:26.128Z,9.57
2022-11-26T06:36:27.798Z,8.98
2022-11-26T06:41:29.926Z,9.90
2022-11-26T06:46:34.226Z,9.30
2022-11-26T06:51:35.934Z,9.82
2022-11-26T06:56:37.629Z,9.20
2022-11-26T07:01:39.985Z,10.35
2022-11-26T07:06:41.841Z,10.27
2022-11-26T07:11:43.569Z,11.18
2022-11-26T07:16:45.178Z,12.05
2022-11-26T07:21:47.118Z,11.85
2022-11-26T07:26:48.829Z,12.45
2022-11-26T07:31:50.712Z,12.00
2022-11-26T07:36:57.756Z,10.75
2022-11-26T07:41:59.750Z,11.53
2022-11-26T07:47:02.348Z,12.57
2022-11-26T07:52:04.244Z,12.73
2022-11-26T07:57:06.152Z,11.60
2022-11-26T08:02:12.705Z,11.68
2022-11-26T08:07:20.134Z,11.10
2022-11-26T08:12:26.347Z,9.20
2022-11-26T08:17:28.459Z,8.85
2022-11-26T08:22:30.632Z,8.65
2022-11-26T08:27:33.235Z,8.00
2022-11-26T08:32:35.637Z,8.45
2022-11-26T08:37:37.228Z,7.32
2022-11-26T08:42:38.866Z,6.75
2022-11-26T08:47:40.433Z,6.43
2022-11-26T08:52:45.183Z,5.90
2022-11-26T08:57:47.337Z,7.32
2022-11-26T09:02:49.113Z,7.22
2022-11-26T09:07:50.843Z,6.90
2022-11-26T09:12:52.636Z,8.82
2022-11-26T09:17:54.866Z,8.23
2022-11-26T09:22:56.537Z,8.55
2022-11-26T09:27:58.161Z,7.32
2022-11-26T09:32:59.848Z,7.35
2022-11-26T09:38:01.483Z,8.20
2022-11-26T09:43:13.967Z,8.25
2022-11-26T09:48:23.203Z,7.20
2022-11-26T09:53:30.924Z,7.88
2022-11-26T09:59:00.027Z,5.90
2022-11-26T10:04:02.141Z,8.45
2022-11-26T10:09:24.959Z,8.93
2022-11-26T10:14:37.924Z,11.13
2022-11-26T10:19:42.692Z,10.50
2022-11-26T10:24:44.570Z,11.13
2022-11-26T10:29:50.964Z,10.82
2022-11-26T10:34:54.983Z,8.95
2022-11-26T10:40:17.005Z,10.32
2022-11-26T10:45:24.973Z,9.95
2022-11-26T10:55:49.459Z,9.25
2022-11-26T11:00:51.060Z,10.10
2022-11-26T11:06:30.453Z,9.35
2022-11-26T11:11:32.343Z,8.93
2022-11-26T11:16:44.195Z,8.90
2022-11-26T11:21:48.399Z,9.82
2022-11-26T11:26:55.391Z,8.65
2022-11-26T11:31:57.924Z,7.03
2022-11-26T11:37:14.851Z,7.15
2022-11-26T11:42:29.290Z,6.85
2022-11-26T11:47:44.173Z,7.20
2022-11-26T11:52:48.869Z,6.45
2022-11-26T11:58:28.196Z,7.10
2022-11-26T12:03:50.542Z,6.65
2022-11-26T12:09:04.464Z,6.75
2022-11-26T12:14:20.957Z,8.35
2022-11-26T12:19:39.212Z,8.02
2022-11-26T12:24:54.991Z,8.35
2022-11-26T12:30:06.308Z,6.70
2022-11-26T12:35:15.809Z,7.70
2022-11-26T12:40:30.454Z,6.60
2022-11-26T12:45:35.126Z,7.93
2022-11-26T12:50:43.423Z,8.68
2022-11-26T12:56:04.662Z,7.93
2022-11-26T13:01:06.493Z,8.00
2022-11-26T13:06:24.539Z,6.93
2022-11-26T13:11:34.979Z,7.00
2022-11-26T13:16:51.663Z,7.38
2022-11-26T13:22:20.547Z,8.25
2022-11-26T13:27:57.155Z,7.57
2022-11-26T13:33:10.967Z,6.70
2022-11-26T13:38:32.391Z,8.05
2022-11-26T13:43:56.106Z,8.00
2022-11-26T13:49:03.887Z,8.82
2022-11-26T13:54:20.953Z,9.50
2022-11-26T13:59:28.587Z,8.90
2022-11-26T14:04:33.500Z,6.43
2022-11-26T14:09:47.595Z,9.50
2022-11-26T14:14:50.759Z,9.90
2022-11-26T14:19:55.820Z,8.32
2022-11-26T14:25:00.553Z,9.70
2022-11-26T14:30:08.654Z,10.80
2022-11-26T14:35:34.632Z,10.65
2022-11-26T14:40:38.536Z,9.85
2022-11-26T14:45:40.669Z,10.23
2022-11-26T14:50:43.219Z,8.90
2022-11-26T14:55:46.275Z,9.85
2022-11-26T15:01:29.248Z,10.80
2022-11-26T15:06:38.264Z,10.07
2022-11-26T15:12:03.713Z,10.88
2022-11-26T15:17:06.279Z,10.73
2022-11-26T15:22:19.499Z,10.35
2022-11-26T15:27:28.564Z,11.35
2022-11-26T15:32:32.888Z,10.90
2022-11-26T15:37:34.557Z,11.00
2022-11-26T15:42:36.513Z,12.70
2022-11-26T15:47:38.441Z,12.15
2022-11-26T15:52:42.913Z,12.20
2022-11-26T15:57:50.088Z,12.35
2022-11-26T16:02:52.322Z,11.90
2022-11-26T16:08:02.966Z,10.40
2022-11-26T16:13:11.878Z,12.93
2022-11-26T16:18:21.620Z,11.70
2022-11-26T16:23:29.629Z,11.68
2022-11-26T16:33:33.938Z,12.52
2022-11-26T16:38:35.532Z,12.00
2022-11-26T16:43:37.131Z,12.23
2022-11-26T16:48:39.258Z,13.48
2022-11-26T16:53:41.250Z,15.45
2022-11-26T16:58:43.305Z,13.02
2022-11-26T17:03:45.751Z,12.40
2022-11-26T17:08:49.881Z,11.68
2022-11-26T17:13:52.304Z,13.25
2022-11-26T17:18:54.086Z,15.20
2022-11-26T17:23:55.730Z,16.85
2022-11-26T17:28:57.469Z,15.77
2022-11-26T17:33:59.528Z,19.63
2022-11-26T17:39:01.465Z,20.15
2022-11-26T17:44:03.155Z,19.30
2022-11-26T17:49:04.959Z,15.18
2022-11-26T17:54:06.586Z,14.45
2022-11-26T17:59:08.355Z,13.60
2022-11-26T18:04:09.942Z,12.90
2022-11-26T18:09:11.751Z,15.18
2022-11-26T18:14:14.429Z,16.73
2022-11-26T18:19:17.765Z,16.38
2022-11-26T18:24:19.564Z,17.77
2022-11-26T18:29:21.605Z,19.75
2022-11-26T18:34:23.854Z,14.27
2022-11-26T18:39:25.854Z,14.30
2022-11-26T18:44:30.724Z,13.18
2022-11-26T18:49:33.576Z,15.13
2022-11-26T18:54:35.184Z,16.02
2022-11-26T18:59:37.324Z,16.08
2022-11-26T19:04:39.262Z,17.00
2022-11-26T19:09:41.698Z,16.48
2022-11-26T19:14:46.890Z,15.07
2022-11-26T19:19:48.582Z,17.08
2022-11-26T19:24:50.357Z,16.08
2022-11-26T19:29:52.293Z,14.68
2022-11-26T19:34:54.661Z,12.02
2022-11-26T19:39:56.918Z,12.35
2022-11-26T19:44:58.607Z,12.45
2022-11-26T19:50:00.297Z,11.40
2022-11-26T19:55:02.574Z,11.13
2022-11-26T20:00:05.260Z,10.38
2022-11-26T20:05:09.007Z,9.98
2022-11-26T20:10:11.956Z,8.38
2022-11-26T20:15:13.698Z,6.35
2022-11-26T20:20:15.595Z,6.85
2022-11-26T20:25:17.346Z,8.50
2022-11-26T20:30:20.321Z,9.05
2022-11-26T20:35:24.226Z,7.38
2022-11-26T20:40:26.205Z,11.20
2022-11-26T20:45:29.186Z,14.65
2022-11-26T20:50:31.354Z,13.85
2022-11-26T20:55:33.163Z,12.30
2022-11-26T21:00:35.744Z,11.50
2022-11-26T21:05:39.136Z,11.57
2022-11-26T21:10:41.312Z,11.18
2022-11-26T21:15:47.793Z,10.00
2022-11-26T21:20:49.510Z,10.98
2022-11-26T21:25:51.667Z,11.80
2022-11-26T21:30:54.257Z,12.65
2022-11-26T21:35:56.470Z,12.57
2022-11-26T21:41:03.674Z,11.02
2022-11-26T21:46:07.089Z,8.57
2022-11-26T21:51:12.109Z,9.65
2022-11-26T21:56:20.502Z,9.68
2022-11-26T22:01:27.257Z,13.90
2022-11-26T22:06:29.681Z,14.02
2022-11-26T22:11:36.073Z,16.27
2022-11-26T22:16:37.900Z,10.52
2022-11-26T22:21:41.739Z,26.00
2022-11-26T22:26:44.126Z,23.48
2022-11-26T22:31:48.247Z,27.60
2022-11-26T22:36:50.032Z,26.67
2022-11-26T22:41:51.638Z,23.17
2022-11-26T22:46:53.259Z,20.10
2022-11-26T22:51:54.973Z,10.23
2022-11-26T22:56:57.542Z,13.80
2022-11-26T23:01:59.745Z,7.72
2022-11-26T23:07:01.524Z,6.70
2022-11-26T23:12:03.385Z,7.22
2022-11-26T23:17:06.461Z,8.52
2022-11-26T23:22:08.182Z,9.00
2022-11-26T23:27:10.421Z,8.90
2022-11-26T23:32:12.268Z,9.18
2022-11-26T23:37:14.107Z,10.60
2022-11-26T23:42:17.669Z,10.60
2022-11-26T23:47:19.288Z,11.13
2022-11-26T23:52:20.949Z,11.98
2022-11-26T23:57:22.735Z,11.73
